sensor_id;sensor_type;location;lat;lon;timestamp;pressure;altitude;pressure_sealevel;temperature;humidity
73518;BME280;61766;60.318;25.044;2022-08-19T00:01:54;101528.75;;;28.32;36.93
73518;BME280;61766;60.318;25.044;2022-08-19T00:04:20;101528.37;;;28.43;36.91
73518;BME280;61766;60.318;25.044;2022-08-19T00:06:45;101528.50;;;28.16;36.97
73518;BME280;61766;60.318;25.044;2022-08-19T00:09:11;101527.23;;;28.20;36.95
73518;BME280;61766;60.318;25.044;2022-08-19T00:11:35;101525.03;;;28.36;36.69
73518;BME280;61766;60.318;25.044;2022-08-19T00:14:00;101522.53;;;28.27;36.79
73518;BME280;61766;60.318;25.044;2022-08-19T00:16:25;101522.21;;;28.14;37.01
73518;BME280;61766;60.318;25.044;2022-08-19T00:18:50;101522.70;;;28.11;37.32
73518;BME280;61766;60.318;25.044;2022-08-19T00:21:15;101522.47;;;27.81;37.28
73518;BME280;61766;60.318;25.044;2022-08-19T00:23:40;101523.89;;;27.98;37.57
73518;BME280;61766;60.318;25.044;2022-08-19T00:26:06;101529.67;;;27.92;37.83
73518;BME280;61766;60.318;25.044;2022-08-19T00:28:31;101528.43;;;27.83;37.70
73518;BME280;61766;60.318;25.044;2022-08-19T00:30:56;101528.00;;;28.00;37.80
73518;BME280;61766;60.318;25.044;2022-08-19T00:33:22;101528.43;;;27.59;37.96
73518;BME280;61766;60.318;25.044;2022-08-19T00:35:47;101531.24;;;27.60;38.01
73518;BME280;61766;60.318;25.044;2022-08-19T00:38:13;101534.05;;;27.56;38.16
73518;BME280;61766;60.318;25.044;2022-08-19T00:40:38;101533.86;;;27.35;38.27
73518;BME280;61766;60.318;25.044;2022-08-19T00:43:08;101537.94;;;27.61;38.26
73518;BME280;61766;60.318;25.044;2022-08-19T00:45:29;101539.28;;;27.32;38.21
73518;BME280;61766;60.318;25.044;2022-08-19T00:47:54;101543.22;;;27.52;38.27
73518;BME280;61766;60.318;25.044;2022-08-19T00:50:21;101542.42;;;27.29;38.04
73518;BME280;61766;60.318;25.044;2022-08-19T00:52:49;101542.70;;;27.60;38.11
73518;BME280;61766;60.318;25.044;2022-08-19T00:55:14;101544.11;;;27.33;38.21
73518;BME280;61766;60.318;25.044;2022-08-19T00:57:40;101547.60;;;27.34;38.15
73518;BME280;61766;60.318;25.044;2022-08-19T01:00:08;101550.43;;;27.35;38.11
73518;BME280;61766;60.318;25.044;2022-08-19T01:02:28;101551.50;;;27.37;37.82
73518;BME280;61766;60.318;25.044;2022-08-19T01:04:53;101552.98;;;27.26;37.85
73518;BME280;61766;60.318;25.044;2022-08-19T01:07:18;101553.63;;;27.44;37.95
73518;BME280;61766;60.318;25.044;2022-08-19T01:09:44;101558.88;;;27.09;38.35
73518;BME280;61766;60.318;25.044;2022-08-19T01:12:09;101561.48;;;27.02;38.42
73518;BME280;61766;60.318;25.044;2022-08-19T01:14:35;101561.06;;;26.97;38.16
73518;BME280;61766;60.318;25.044;2022-08-19T01:17:00;101560.53;;;27.03;38.29
73518;BME280;61766;60.318;25.044;2022-08-19T01:19:28;101558.63;;;27.24;38.19
73518;BME280;61766;60.318;25.044;2022-08-19T01:21:54;101557.32;;;27.15;38.22
73518;BME280;61766;60.318;25.044;2022-08-19T01:24:15;101559.27;;;27.36;38.27
73518;BME280;61766;60.318;25.044;2022-08-19T01:26:47;101562.83;;;27.26;38.16
73518;BME280;61766;60.318;25.044;2022-08-19T01:29:07;101567.81;;;27.02;38.23
73518;BME280;61766;60.318;25.044;2022-08-19T01:31:32;101569.79;;;27.02;38.09
73518;BME280;61766;60.318;25.044;2022-08-19T01:33:58;101569.30;;;27.20;38.22
73518;BME280;61766;60.318;25.044;2022-08-19T01:36:26;101571.94;;;26.91;38.31
73518;BME280;61766;60.318;25.044;2022-08-19T01:38:48;101570.09;;;26.86;38.31
73518;BME280;61766;60.318;25.044;2022-08-19T01:41:13;101570.47;;;26.79;38.30
73518;BME280;61766;60.318;25.044;2022-08-19T01:43:39;101573.31;;;27.06;38.05
73518;BME280;61766;60.318;25.044;2022-08-19T01:46:04;101576.54;;;26.70;38.08
73518;BME280;61766;60.318;25.044;2022-08-19T01:48:33;101579.09;;;26.61;38.31
73518;BME280;61766;60.318;25.044;2022-08-19T01:50:55;101583.60;;;26.77;38.53
73518;BME280;61766;60.318;25.044;2022-08-19T01:53:21;101585.14;;;26.70;38.47
73518;BME280;61766;60.318;25.044;2022-08-19T01:55:46;101588.78;;;26.41;38.53
73518;BME280;61766;60.318;25.044;2022-08-19T01:58:15;101588.57;;;26.39;38.45
73518;BME280;61766;60.318;25.044;2022-08-19T02:00:37;101592.83;;;26.57;38.46
73518;BME280;61766;60.318;25.044;2022-08-19T02:03:02;101594.38;;;26.55;38.67
73518;BME280;61766;60.318;25.044;2022-08-19T02:05:28;101592.95;;;26.50;38.50
73518;BME280;61766;60.318;25.044;2022-08-19T02:07:53;101591.17;;;26.40;38.69
73518;BME280;61766;60.318;25.044;2022-08-19T02:10:21;101590.57;;;26.32;38.85
73518;BME280;61766;60.318;25.044;2022-08-19T02:12:44;101592.19;;;26.18;39.02
73518;BME280;61766;60.318;25.044;2022-08-19T02:15:10;101590.38;;;26.07;39.29
73518;BME280;61766;60.318;25.044;2022-08-19T02:17:34;101591.24;;;26.12;39.20
73518;BME280;61766;60.318;25.044;2022-08-19T02:19:59;101586.63;;;26.11;39.24
73518;BME280;61766;60.318;25.044;2022-08-19T02:22:25;101583.69;;;26.08;39.10
73518;BME280;61766;60.318;25.044;2022-08-19T02:24:50;101581.38;;;26.05;39.12
73518;BME280;61766;60.318;25.044;2022-08-19T02:27:15;101583.75;;;26.01;39.01
73518;BME280;61766;60.318;25.044;2022-08-19T02:29:41;101586.54;;;26.50;39.00
73518;BME280;61766;60.318;25.044;2022-08-19T02:32:07;101586.50;;;26.12;39.01
73518;BME280;61766;60.318;25.044;2022-08-19T02:34:32;101588.34;;;26.24;39.07
73518;BME280;61766;60.318;25.044;2022-08-19T02:36:57;101591.00;;;25.93;39.27
73518;BME280;61766;60.318;25.044;2022-08-19T02:39:22;101589.72;;;25.97;39.18
73518;BME280;61766;60.318;25.044;2022-08-19T02:41:47;101590.52;;;25.80;38.88
73518;BME280;61766;60.318;25.044;2022-08-19T02:44:13;101589.72;;;25.79;39.03
73518;BME280;61766;60.318;25.044;2022-08-19T02:46:39;101591.61;;;25.95;39.24
73518;BME280;61766;60.318;25.044;2022-08-19T02:49:06;101589.69;;;26.15;39.06
73518;BME280;61766;60.318;25.044;2022-08-19T02:51:34;101592.19;;;25.92;38.77
73518;BME280;61766;60.318;25.044;2022-08-19T02:53:56;101588.01;;;25.90;38.64
73518;BME280;61766;60.318;25.044;2022-08-19T02:56:21;101587.75;;;26.10;38.72
73518;BME280;61766;60.318;25.044;2022-08-19T02:58:47;101588.18;;;26.08;38.62
73518;BME280;61766;60.318;25.044;2022-08-19T03:01:21;101587.64;;;26.02;38.52
73518;BME280;61766;60.318;25.044;2022-08-19T03:03:38;101586.58;;;26.06;38.58
73518;BME280;61766;60.318;25.044;2022-08-19T03:06:05;101586.73;;;25.82;38.54
73518;BME280;61766;60.318;25.044;2022-08-19T03:08:28;101581.92;;;25.76;38.71
73518;BME280;61766;60.318;25.044;2022-08-19T03:10:54;101584.31;;;25.71;38.88
73518;BME280;61766;60.318;25.044;2022-08-19T03:13:20;101585.57;;;25.66;38.80
73518;BME280;61766;60.318;25.044;2022-08-19T03:15:47;101587.49;;;25.78;39.03
73518;BME280;61766;60.318;25.044;2022-08-19T03:18:11;101585.22;;;25.50;39.20
73518;BME280;61766;60.318;25.044;2022-08-19T03:20:41;101589.78;;;25.71;39.32
73518;BME280;61766;60.318;25.044;2022-08-19T03:23:01;101590.02;;;25.67;39.53
73518;BME280;61766;60.318;25.044;2022-08-19T03:25:27;101587.09;;;25.71;39.62
73518;BME280;61766;60.318;25.044;2022-08-19T03:27:52;101587.64;;;25.64;39.61
73518;BME280;61766;60.318;25.044;2022-08-19T03:30:18;101589.20;;;25.62;39.62
73518;BME280;61766;60.318;25.044;2022-08-19T03:32:43;101588.90;;;25.56;39.56
73518;BME280;61766;60.318;25.044;2022-08-19T03:35:09;101592.14;;;25.53;39.63
73518;BME280;61766;60.318;25.044;2022-08-19T03:37:34;101597.42;;;25.43;39.78
73518;BME280;61766;60.318;25.044;2022-08-19T03:39:59;101596.86;;;25.35;39.70
73518;BME280;61766;60.318;25.044;2022-08-19T03:42:24;101596.86;;;25.33;40.05
73518;BME280;61766;60.318;25.044;2022-08-19T03:44:50;101596.45;;;25.68;39.96
73518;BME280;61766;60.318;25.044;2022-08-19T03:47:15;101596.36;;;25.51;39.86
73518;BME280;61766;60.318;25.044;2022-08-19T03:49:41;101597.22;;;25.45;39.78
73518;BME280;61766;60.318;25.044;2022-08-19T03:52:06;101600.58;;;25.27;40.50
73518;BME280;61766;60.318;25.044;2022-08-19T03:54:35;101602.69;;;25.13;41.53
73518;BME280;61766;60.318;25.044;2022-08-19T03:56:58;101603.82;;;25.11;41.89
73518;BME280;61766;60.318;25.044;2022-08-19T03:59:25;101603.67;;;25.60;41.37
73518;BME280;61766;60.318;25.044;2022-08-19T04:01:49;101606.58;;;25.50;41.35
73518;BME280;61766;60.318;25.044;2022-08-19T04:04:14;101604.07;;;25.78;40.56
73518;BME280;61766;60.318;25.044;2022-08-19T04:06:40;101602.31;;;25.68;40.18
73518;BME280;61766;60.318;25.044;2022-08-19T04:09:08;101606.34;;;26.06;39.84
73518;BME280;61766;60.318;25.044;2022-08-19T04:11:37;101606.38;;;25.99;39.59
73518;BME280;61766;60.318;25.044;2022-08-19T04:13:56;101610.76;;;26.26;39.54
73518;BME280;61766;60.318;25.044;2022-08-19T04:16:25;101613.03;;;26.35;39.49
73518;BME280;61766;60.318;25.044;2022-08-19T04:18:48;101614.38;;;25.99;39.31
73518;BME280;61766;60.318;25.044;2022-08-19T04:21:16;101611.58;;;26.10;39.05
73518;BME280;61766;60.318;25.044;2022-08-19T04:23:38;101615.62;;;26.25;38.94
73518;BME280;61766;60.318;25.044;2022-08-19T04:26:03;101616.25;;;26.41;38.86
73518;BME280;61766;60.318;25.044;2022-08-19T04:28:29;101615.16;;;26.56;38.50
73518;BME280;61766;60.318;25.044;2022-08-19T04:30:55;101619.67;;;26.68;38.52
73518;BME280;61766;60.318;25.044;2022-08-19T04:33:21;101621.35;;;26.51;38.57
73518;BME280;61766;60.318;25.044;2022-08-19T04:35:48;101626.75;;;26.91;38.62
73518;BME280;61766;60.318;25.044;2022-08-19T04:38:11;101627.64;;;26.72;38.78
73518;BME280;61766;60.318;25.044;2022-08-19T04:40:41;101628.84;;;26.75;38.79
73518;BME280;61766;60.318;25.044;2022-08-19T04:43:02;101630.62;;;27.09;38.82
73518;BME280;61766;60.318;25.044;2022-08-19T04:45:28;101630.22;;;27.15;38.88
73518;BME280;61766;60.318;25.044;2022-08-19T04:47:55;101628.33;;;27.24;38.77
73518;BME280;61766;60.318;25.044;2022-08-19T04:50:19;101631.25;;;26.80;39.12
73518;BME280;61766;60.318;25.044;2022-08-19T04:52:44;101631.42;;;27.10;38.90
73518;BME280;61766;60.318;25.044;2022-08-19T04:55:10;101633.07;;;27.36;38.56
73518;BME280;61766;60.318;25.044;2022-08-19T04:57:35;101637.94;;;27.53;38.28
73518;BME280;61766;60.318;25.044;2022-08-19T05:00:00;101640.02;;;27.47;38.33
73518;BME280;61766;60.318;25.044;2022-08-19T05:02:26;101639.17;;;26.07;39.86
73518;BME280;61766;60.318;25.044;2022-08-19T05:04:55;101639.64;;;27.16;39.18
73518;BME280;61766;60.318;25.044;2022-08-19T05:07:17;101637.60;;;27.08;38.87
73518;BME280;61766;60.318;25.044;2022-08-19T05:09:43;101638.97;;;26.37;39.77
73518;BME280;61766;60.318;25.044;2022-08-19T05:12:08;101638.95;;;26.66;39.57
73518;BME280;61766;60.318;25.044;2022-08-19T05:14:34;101639.74;;;27.17;39.28
73518;BME280;61766;60.318;25.044;2022-08-19T05:17:01;101640.46;;;27.51;38.38
73518;BME280;61766;60.318;25.044;2022-08-19T05:19:24;101641.85;;;26.91;39.07
73518;BME280;61766;60.318;25.044;2022-08-19T05:21:49;101641.47;;;27.50;38.29
73518;BME280;61766;60.318;25.044;2022-08-19T05:24:16;101640.76;;;27.78;37.92
73518;BME280;61766;60.318;25.044;2022-08-19T05:26:47;101637.18;;;28.13;37.45
73518;BME280;61766;60.318;25.044;2022-08-19T05:29:07;101641.26;;;27.85;37.49
73518;BME280;61766;60.318;25.044;2022-08-19T05:31:32;101643.82;;;27.69;37.49
73518;BME280;61766;60.318;25.044;2022-08-19T05:33:58;101643.31;;;28.25;36.96
73518;BME280;61766;60.318;25.044;2022-08-19T05:36:23;101641.78;;;28.03;36.69
73518;BME280;61766;60.318;25.044;2022-08-19T05:38:49;101642.28;;;28.43;36.28
73518;BME280;61766;60.318;25.044;2022-08-19T05:41:14;101643.71;;;28.52;36.03
73518;BME280;61766;60.318;25.044;2022-08-19T05:43:39;101640.94;;;28.63;35.78
73518;BME280;61766;60.318;25.044;2022-08-19T05:46:04;101640.80;;;28.17;35.87
73518;BME280;61766;60.318;25.044;2022-08-19T05:48:30;101640.43;;;28.27;35.67
73518;BME280;61766;60.318;25.044;2022-08-19T05:50:55;101641.40;;;28.19;36.06
73518;BME280;61766;60.318;25.044;2022-08-19T05:53:21;101640.67;;;28.46;35.98
73518;BME280;61766;60.318;25.044;2022-08-19T05:55:46;101636.29;;;28.92;35.39
73518;BME280;61766;60.318;25.044;2022-08-19T05:58:12;101636.88;;;28.94;35.00
73518;BME280;61766;60.318;25.044;2022-08-19T06:00:38;101638.83;;;28.62;34.91
73518;BME280;61766;60.318;25.044;2022-08-19T06:03:02;101638.93;;;28.40;35.33
73518;BME280;61766;60.318;25.044;2022-08-19T06:05:28;101648.45;;;28.07;35.63
73518;BME280;61766;60.318;25.044;2022-08-19T06:07:53;101649.91;;;28.97;34.50
73518;BME280;61766;60.318;25.044;2022-08-19T06:10:18;101649.50;;;29.58;33.79
73518;BME280;61766;60.318;25.044;2022-08-19T06:12:44;101651.25;;;29.42;34.05
73518;BME280;61766;60.318;25.044;2022-08-19T06:15:12;101648.47;;;29.76;33.93
73518;BME280;61766;60.318;25.044;2022-08-19T06:17:35;101647.38;;;28.87;34.29
73518;BME280;61766;60.318;25.044;2022-08-19T06:20:01;101652.29;;;28.74;34.67
73518;BME280;61766;60.318;25.044;2022-08-19T06:22:27;101653.91;;;28.14;35.53
73518;BME280;61766;60.318;25.044;2022-08-19T06:24:51;101652.12;;;28.58;35.24
73518;BME280;61766;60.318;25.044;2022-08-19T06:27:17;101652.51;;;29.02;34.42
73518;BME280;61766;60.318;25.044;2022-08-19T06:29:42;101656.61;;;28.15;35.47
73518;BME280;61766;60.318;25.044;2022-08-19T06:32:08;101653.80;;;28.50;35.38
73518;BME280;61766;60.318;25.044;2022-08-19T06:34:34;101651.69;;;28.40;35.66
73518;BME280;61766;60.318;25.044;2022-08-19T06:37:00;101655.67;;;28.26;35.38
73518;BME280;61766;60.318;25.044;2022-08-19T06:39:27;101651.62;;;28.74;35.42
73518;BME280;61766;60.318;25.044;2022-08-19T06:41:52;101648.43;;;28.58;35.18
73518;BME280;61766;60.318;25.044;2022-08-19T06:44:15;101642.63;;;29.22;34.33
73518;BME280;61766;60.318;25.044;2022-08-19T06:46:41;101641.22;;;29.62;33.60
73518;BME280;61766;60.318;25.044;2022-08-19T06:49:06;101640.09;;;30.05;33.39
73518;BME280;61766;60.318;25.044;2022-08-19T06:51:31;101641.15;;;29.69;33.23
73518;BME280;61766;60.318;25.044;2022-08-19T06:53:57;101639.76;;;29.18;34.00
73518;BME280;61766;60.318;25.044;2022-08-19T06:56:25;101636.84;;;28.63;34.86
73518;BME280;61766;60.318;25.044;2022-08-19T06:58:48;101640.04;;;29.45;33.71
73518;BME280;61766;60.318;25.044;2022-08-19T07:01:13;101645.13;;;29.87;33.39
73518;BME280;61766;60.318;25.044;2022-08-19T07:03:39;101648.86;;;29.15;34.25
73518;BME280;61766;60.318;25.044;2022-08-19T07:06:05;101650.03;;;29.47;33.77
73518;BME280;61766;60.318;25.044;2022-08-19T07:08:29;101646.48;;;28.69;34.24
73518;BME280;61766;60.318;25.044;2022-08-19T07:10:54;101648.19;;;28.68;35.23
73518;BME280;61766;60.318;25.044;2022-08-19T07:13:20;101642.49;;;28.89;35.55
73518;BME280;61766;60.318;25.044;2022-08-19T07:15:45;101644.50;;;28.76;35.83
73518;BME280;61766;60.318;25.044;2022-08-19T07:18:11;101644.47;;;29.25;34.59
73518;BME280;61766;60.318;25.044;2022-08-19T07:20:36;101640.47;;;29.03;34.83
73518;BME280;61766;60.318;25.044;2022-08-19T07:23:01;101644.85;;;29.26;34.25
73518;BME280;61766;60.318;25.044;2022-08-19T07:25:26;101638.49;;;29.46;33.82
73518;BME280;61766;60.318;25.044;2022-08-19T07:27:52;101638.68;;;28.80;34.71
73518;BME280;61766;60.318;25.044;2022-08-19T07:30:18;101636.70;;;28.52;35.10
73518;BME280;61766;60.318;25.044;2022-08-19T07:32:43;101638.48;;;29.16;34.38
73518;BME280;61766;60.318;25.044;2022-08-19T07:35:09;101632.08;;;29.84;33.68
73518;BME280;61766;60.318;25.044;2022-08-19T07:37:34;101635.27;;;29.26;34.15
73518;BME280;61766;60.318;25.044;2022-08-19T07:40:00;101630.86;;;29.46;33.70
73518;BME280;61766;60.318;25.044;2022-08-19T07:42:25;101633.12;;;29.22;34.26
73518;BME280;61766;60.318;25.044;2022-08-19T07:44:50;101641.00;;;28.64;35.10
73518;BME280;61766;60.318;25.044;2022-08-19T07:47:16;101640.07;;;28.94;35.03
73518;BME280;61766;60.318;25.044;2022-08-19T07:49:41;101642.87;;;28.66;35.55
73518;BME280;61766;60.318;25.044;2022-08-19T07:52:08;101644.91;;;29.80;34.52
73518;BME280;61766;60.318;25.044;2022-08-19T07:54:33;101642.86;;;29.48;33.81
73518;BME280;61766;60.318;25.044;2022-08-19T07:56:58;101644.28;;;29.80;33.32
73518;BME280;61766;60.318;25.044;2022-08-19T07:59:23;101641.58;;;30.44;32.85
73518;BME280;61766;60.318;25.044;2022-08-19T08:01:48;101642.40;;;29.93;33.42
73518;BME280;61766;60.318;25.044;2022-08-19T08:04:14;101641.62;;;29.87;33.34
73518;BME280;61766;60.318;25.044;2022-08-19T08:06:39;101641.32;;;29.14;33.82
73518;BME280;61766;60.318;25.044;2022-08-19T08:09:05;101642.70;;;30.26;32.85
73518;BME280;61766;60.318;25.044;2022-08-19T08:11:30;101643.64;;;30.26;33.09
73518;BME280;61766;60.318;25.044;2022-08-19T08:13:55;101644.74;;;29.90;32.71
73518;BME280;61766;60.318;25.044;2022-08-19T08:16:20;101644.51;;;30.53;31.66
73518;BME280;61766;60.318;25.044;2022-08-19T08:18:46;101646.13;;;29.09;33.94
73518;BME280;61766;60.318;25.044;2022-08-19T08:21:11;101638.33;;;29.75;33.26
73518;BME280;61766;60.318;25.044;2022-08-19T08:23:36;101636.91;;;30.57;31.84
73518;BME280;61766;60.318;25.044;2022-08-19T08:26:02;101640.04;;;30.57;32.18
73518;BME280;61766;60.318;25.044;2022-08-19T08:28:27;101641.48;;;31.07;31.19
73518;BME280;61766;60.318;25.044;2022-08-19T08:30:53;101641.33;;;30.92;31.61
73518;BME280;61766;60.318;25.044;2022-08-19T08:33:20;101642.06;;;31.08;30.94
73518;BME280;61766;60.318;25.044;2022-08-19T08:35:44;101644.54;;;31.50;30.60
73518;BME280;61766;60.318;25.044;2022-08-19T08:38:09;101645.70;;;31.37;30.87
73518;BME280;61766;60.318;25.044;2022-08-19T08:40:42;101653.34;;;32.57;29.71
73518;BME280;61766;60.318;25.044;2022-08-19T08:43:05;101660.43;;;31.17;31.07
73518;BME280;61766;60.318;25.044;2022-08-19T08:45:27;101659.15;;;31.35;30.95
73518;BME280;61766;60.318;25.044;2022-08-19T08:47:54;101658.50;;;31.37;30.98
73518;BME280;61766;60.318;25.044;2022-08-19T08:50:20;101659.09;;;31.44;30.99
73518;BME280;61766;60.318;25.044;2022-08-19T08:52:46;101660.45;;;31.51;30.47
73518;BME280;61766;60.318;25.044;2022-08-19T08:55:12;101669.44;;;32.33;29.12
73518;BME280;61766;60.318;25.044;2022-08-19T08:57:36;101670.52;;;32.36;29.44
73518;BME280;61766;60.318;25.044;2022-08-19T09:00:03;101666.42;;;32.45;29.05
73518;BME280;61766;60.318;25.044;2022-08-19T09:02:25;101665.25;;;32.29;29.10
73518;BME280;61766;60.318;25.044;2022-08-19T09:04:50;101665.93;;;32.13;29.82
73518;BME280;61766;60.318;25.044;2022-08-19T09:07:25;101677.48;;;32.00;29.51
73518;BME280;61766;60.318;25.044;2022-08-19T09:09:43;101674.89;;;31.22;30.51
73518;BME280;61766;60.318;25.044;2022-08-19T09:12:12;101678.53;;;30.42;31.71
73518;BME280;61766;60.318;25.044;2022-08-19T09:14:36;101673.54;;;31.68;30.69
73518;BME280;61766;60.318;25.044;2022-08-19T09:16:59;101679.31;;;31.19;31.00
73518;BME280;61766;60.318;25.044;2022-08-19T09:19:23;101673.81;;;31.20;31.15
73518;BME280;61766;60.318;25.044;2022-08-19T09:21:49;101680.72;;;31.64;30.02
73518;BME280;61766;60.318;25.044;2022-08-19T09:24:14;101680.76;;;30.57;31.52
73518;BME280;61766;60.318;25.044;2022-08-19T09:26:39;101681.24;;;30.95;31.47
73518;BME280;61766;60.318;25.044;2022-08-19T09:29:05;101684.81;;;29.55;33.36
73518;BME280;61766;60.318;25.044;2022-08-19T09:31:31;101684.41;;;30.10;32.59
73518;BME280;61766;60.318;25.044;2022-08-19T09:33:56;101680.04;;;30.75;31.65
73518;BME280;61766;60.318;25.044;2022-08-19T09:36:22;101679.83;;;30.83;31.03
73518;BME280;61766;60.318;25.044;2022-08-19T09:38:47;101677.02;;;31.58;30.47
73518;BME280;61766;60.318;25.044;2022-08-19T09:41:15;101678.19;;;32.37;29.85
73518;BME280;61766;60.318;25.044;2022-08-19T09:43:39;101675.84;;;31.38;30.60
73518;BME280;61766;60.318;25.044;2022-08-19T09:46:05;101673.42;;;31.14;31.06
73518;BME280;61766;60.318;25.044;2022-08-19T09:48:29;101677.99;;;30.37;31.97
73518;BME280;61766;60.318;25.044;2022-08-19T09:50:54;101675.36;;;30.65;32.24
73518;BME280;61766;60.318;25.044;2022-08-19T09:53:20;101677.13;;;29.93;33.13
73518;BME280;61766;60.318;25.044;2022-08-19T09:55:45;101677.71;;;29.41;33.56
73518;BME280;61766;60.318;25.044;2022-08-19T09:58:11;101677.94;;;30.00;32.91
73518;BME280;61766;60.318;25.044;2022-08-19T10:00:37;101677.39;;;30.66;32.12
73518;BME280;61766;60.318;25.044;2022-08-19T10:03:02;101679.61;;;30.60;32.17
73518;BME280;61766;60.318;25.044;2022-08-19T10:05:27;101685.05;;;29.43;33.67
73518;BME280;61766;60.318;25.044;2022-08-19T10:07:53;101674.82;;;29.20;34.64
73518;BME280;61766;60.318;25.044;2022-08-19T10:10:18;101678.49;;;29.77;34.41
73518;BME280;61766;60.318;25.044;2022-08-19T10:12:43;101678.38;;;29.93;33.97
73518;BME280;61766;60.318;25.044;2022-08-19T10:15:09;101677.32;;;29.58;34.18
73518;BME280;61766;60.318;25.044;2022-08-19T10:17:34;101672.06;;;29.56;34.16
73518;BME280;61766;60.318;25.044;2022-08-19T10:19:59;101669.45;;;30.07;33.34
73518;BME280;61766;60.318;25.044;2022-08-19T10:22:24;101680.70;;;29.94;33.34
73518;BME280;61766;60.318;25.044;2022-08-19T10:24:50;101670.78;;;30.68;32.68
73518;BME280;61766;60.318;25.044;2022-08-19T10:27:15;101671.78;;;30.34;32.57
73518;BME280;61766;60.318;25.044;2022-08-19T10:29:42;101675.77;;;30.13;33.45
73518;BME280;61766;60.318;25.044;2022-08-19T10:32:08;101672.33;;;30.81;32.56
73518;BME280;61766;60.318;25.044;2022-08-19T10:34:32;101665.39;;;30.18;33.10
73518;BME280;61766;60.318;25.044;2022-08-19T10:36:58;101670.24;;;30.78;32.13
73518;BME280;61766;60.318;25.044;2022-08-19T10:39:22;101666.00;;;31.56;31.67
73518;BME280;61766;60.318;25.044;2022-08-19T10:41:48;101665.80;;;31.80;30.44
73518;BME280;61766;60.318;25.044;2022-08-19T10:44:13;101675.65;;;31.40;31.37
73518;BME280;61766;60.318;25.044;2022-08-19T10:46:40;101676.91;;;31.93;30.87
73518;BME280;61766;60.318;25.044;2022-08-19T10:49:05;101671.60;;;31.84;31.36
73518;BME280;61766;60.318;25.044;2022-08-19T10:51:30;101675.27;;;31.90;30.98
73518;BME280;61766;60.318;25.044;2022-08-19T10:53:56;101682.31;;;31.22;30.64
73518;BME280;61766;60.318;25.044;2022-08-19T10:56:21;101682.42;;;31.19;31.38
73518;BME280;61766;60.318;25.044;2022-08-19T10:58:46;101691.82;;;30.42;32.06
73518;BME280;61766;60.318;25.044;2022-08-19T11:01:11;101680.83;;;31.21;31.53
73518;BME280;61766;60.318;25.044;2022-08-19T11:03:36;101685.80;;;30.88;32.82
73518;BME280;61766;60.318;25.044;2022-08-19T11:06:04;101672.86;;;30.97;31.68
73518;BME280;61766;60.318;25.044;2022-08-19T11:08:27;101671.38;;;31.98;31.37
73518;BME280;61766;60.318;25.044;2022-08-19T11:10:53;101672.86;;;31.00;31.33
73518;BME280;61766;60.318;25.044;2022-08-19T11:13:18;101673.19;;;31.39;30.95
73518;BME280;61766;60.318;25.044;2022-08-19T11:15:43;101669.81;;;32.02;30.33
73518;BME280;61766;60.318;25.044;2022-08-19T11:18:09;101682.67;;;31.81;30.09
73518;BME280;61766;60.318;25.044;2022-08-19T11:20:34;101675.34;;;30.50;31.46
73518;BME280;61766;60.318;25.044;2022-08-19T11:23:00;101672.74;;;31.27;30.39
73518;BME280;61766;60.318;25.044;2022-08-19T11:25:25;101681.48;;;30.81;31.43
73518;BME280;61766;60.318;25.044;2022-08-19T11:27:51;101671.98;;;30.32;31.90
73518;BME280;61766;60.318;25.044;2022-08-19T11:30:17;101671.53;;;30.14;33.11
73518;BME280;61766;60.318;25.044;2022-08-19T11:32:42;101666.14;;;30.38;32.41
73518;BME280;61766;60.318;25.044;2022-08-19T11:35:08;101669.97;;;30.39;32.65
73518;BME280;61766;60.318;25.044;2022-08-19T11:37:33;101665.99;;;30.76;32.52
73518;BME280;61766;60.318;25.044;2022-08-19T11:39:58;101666.25;;;31.30;31.71
73518;BME280;61766;60.318;25.044;2022-08-19T11:42:23;101668.09;;;31.26;30.35
73518;BME280;61766;60.318;25.044;2022-08-19T11:44:49;101661.20;;;31.42;30.03
73518;BME280;61766;60.318;25.044;2022-08-19T11:47:15;101660.59;;;32.02;30.23
73518;BME280;61766;60.318;25.044;2022-08-19T11:49:40;101656.08;;;32.56;29.41
73518;BME280;61766;60.318;25.044;2022-08-19T11:52:05;101654.61;;;32.35;29.50
73518;BME280;61766;60.318;25.044;2022-08-19T11:54:31;101661.61;;;32.83;28.67
73518;BME280;61766;60.318;25.044;2022-08-19T11:56:56;101663.51;;;32.59;29.09
73518;BME280;61766;60.318;25.044;2022-08-19T11:59:22;101661.45;;;31.21;30.06
73518;BME280;61766;60.318;25.044;2022-08-19T12:01:48;101662.93;;;32.08;29.14
73518;BME280;61766;60.318;25.044;2022-08-19T12:04:14;101660.08;;;32.33;29.43
73518;BME280;61766;60.318;25.044;2022-08-19T12:06:40;101657.97;;;32.72;28.73
73518;BME280;61766;60.318;25.044;2022-08-19T12:09:07;101657.72;;;31.86;29.25
73518;BME280;61766;60.318;25.044;2022-08-19T12:11:29;101652.67;;;31.94;29.64
73518;BME280;61766;60.318;25.044;2022-08-19T12:13:55;101652.77;;;32.17;29.08
73518;BME280;61766;60.318;25.044;2022-08-19T12:16:23;101655.40;;;32.90;28.32
73518;BME280;61766;60.318;25.044;2022-08-19T12:18:47;101651.67;;;32.91;28.13
73518;BME280;61766;60.318;25.044;2022-08-19T12:21:12;101654.42;;;32.76;28.37
73518;BME280;61766;60.318;25.044;2022-08-19T12:23:37;101651.47;;;33.05;27.71
73518;BME280;61766;60.318;25.044;2022-08-19T12:26:04;101647.53;;;33.38;27.46
73518;BME280;61766;60.318;25.044;2022-08-19T12:28:29;101647.17;;;32.78;28.26
73518;BME280;61766;60.318;25.044;2022-08-19T12:30:56;101646.92;;;32.77;28.15